sensor_id;sensor_type;location;lat;lon;timestamp;P1;durP1;ratioP1;P2;durP2;ratioP2
77430;SDS011;66498;48.564;19.272;2023-07-16T00:00:17;9.10;;;8.20;;
77430;SDS011;66498;48.564;19.272;2023-07-16T00:02:44;10.75;;;8.18;;
77430;SDS011;66498;48.564;19.272;2023-07-16T00:05:09;9.68;;;8.38;;
77430;SDS011;66498;48.564;19.272;2023-07-16T00:07:35;9.02;;;8.13;;
77430;SDS011;66498;48.564;19.272;2023-07-16T00:10:00;8.88;;;7.97;;
77430;SDS011;66498;48.564;19.272;2023-07-16T00:12:27;10.80;;;7.88;;
77430;SDS011;66498;48.564;19.272;2023-07-16T00:14:52;8.80;;;7.10;;
77430;SDS011;66498;48.564;19.272;2023-07-16T00:17:18;10.60;;;7.85;;
77430;SDS011;66498;48.564;19.272;2023-07-16T00:19:43;10.10;;;8.05;;
77430;SDS011;66498;48.564;19.272;2023-07-16T00:22:09;9.77;;;8.35;;
77430;SDS011;66498;48.564;19.272;2023-07-16T00:24:34;10.07;;;7.93;;
77430;SDS011;66498;48.564;19.272;2023-07-16T00:27:00;11.77;;;8.20;;
77430;SDS011;66498;48.564;19.272;2023-07-16T00:29:25;11.05;;;8.57;;
77430;SDS011;66498;48.564;19.272;2023-07-16T00:31:50;12.75;;;8.57;;
77430;SDS011;66498;48.564;19.272;2023-07-16T00:34:16;11.02;;;9.20;;
77430;SDS011;66498;48.564;19.272;2023-07-16T00:36:41;10.73;;;8.20;;
77430;SDS011;66498;48.564;19.272;2023-07-16T00:39:07;11.18;;;8.20;;
77430;SDS011;66498;48.564;19.272;2023-07-16T00:41:32;10.18;;;8.13;;
77430;SDS011;66498;48.564;19.272;2023-07-16T00:43:58;10.43;;;8.30;;
77430;SDS011;66498;48.564;19.272;2023-07-16T00:46:23;9.80;;;7.82;;
77430;SDS011;66498;48.564;19.272;2023-07-16T00:48:49;10.00;;;7.40;;
77430;SDS011;66498;48.564;19.272;2023-07-16T00:51:15;12.30;;;7.30;;
77430;SDS011;66498;48.564;19.272;2023-07-16T00:53:41;10.88;;;7.85;;
77430;SDS011;66498;48.564;19.272;2023-07-16T00:56:08;13.02;;;7.65;;
77430;SDS011;66498;48.564;19.272;2023-07-16T00:58:35;9.98;;;7.38;;
77430;SDS011;66498;48.564;19.272;2023-07-16T01:01:00;11.05;;;8.40;;
77430;SDS011;66498;48.564;19.272;2023-07-16T01:03:25;12.77;;;9.30;;
77430;SDS011;66498;48.564;19.272;2023-07-16T01:06:07;10.98;;;8.63;;
77430;SDS011;66498;48.564;19.272;2023-07-16T01:08:42;10.75;;;8.25;;
77430;SDS011;66498;48.564;19.272;2023-07-16T01:11:12;13.68;;;9.45;;
77430;SDS011;66498;48.564;19.272;2023-07-16T01:13:38;10.38;;;8.68;;
77430;SDS011;66498;48.564;19.272;2023-07-16T01:16:04;10.30;;;8.35;;
77430;SDS011;66498;48.564;19.272;2023-07-16T01:18:30;9.30;;;7.90;;
77430;SDS011;66498;48.564;19.272;2023-07-16T01:20:55;10.82;;;8.60;;
77430;SDS011;66498;48.564;19.272;2023-07-16T01:26:28;10.18;;;8.52;;
77430;SDS011;66498;48.564;19.272;2023-07-16T01:32:15;12.05;;;8.70;;
77430;SDS011;66498;48.564;19.272;2023-07-16T01:34:42;9.38;;;7.80;;
77430;SDS011;66498;48.564;19.272;2023-07-16T01:37:08;10.70;;;7.97;;
77430;SDS011;66498;48.564;19.272;2023-07-16T01:39:34;9.82;;;8.82;;
77430;SDS011;66498;48.564;19.272;2023-07-16T01:42:00;10.55;;;8.20;;
77430;SDS011;66498;48.564;19.272;2023-07-16T01:44:27;10.07;;;8.55;;
77430;SDS011;66498;48.564;19.272;2023-07-16T01:47:04;9.35;;;8.07;;
77430;SDS011;66498;48.564;19.272;2023-07-16T01:49:36;10.10;;;8.77;;
77430;SDS011;66498;48.564;19.272;2023-07-16T01:52:04;13.43;;;9.13;;
77430;SDS011;66498;48.564;19.272;2023-07-16T01:54:31;11.93;;;8.55;;
77430;SDS011;66498;48.564;19.272;2023-07-16T01:56:56;10.68;;;8.68;;
77430;SDS011;66498;48.564;19.272;2023-07-16T01:59:22;9.40;;;8.32;;
77430;SDS011;66498;48.564;19.272;2023-07-16T02:01:47;12.35;;;8.50;;
77430;SDS011;66498;48.564;19.272;2023-07-16T02:04:12;11.75;;;9.05;;
77430;SDS011;66498;48.564;19.272;2023-07-16T02:06:38;10.57;;;8.73;;
77430;SDS011;66498;48.564;19.272;2023-07-16T02:09:03;9.60;;;8.27;;
77430;SDS011;66498;48.564;19.272;2023-07-16T02:11:29;9.85;;;8.40;;
77430;SDS011;66498;48.564;19.272;2023-07-16T02:13:54;12.13;;;8.95;;
77430;SDS011;66498;48.564;19.272;2023-07-16T02:16:20;12.40;;;8.75;;
77430;SDS011;66498;48.564;19.272;2023-07-16T02:18:45;11.02;;;9.30;;
77430;SDS011;66498;48.564;19.272;2023-07-16T02:21:11;10.40;;;9.30;;
77430;SDS011;66498;48.564;19.272;2023-07-16T02:23:36;10.70;;;9.40;;
77430;SDS011;66498;48.564;19.272;2023-07-16T02:26:02;8.98;;;8.07;;
77430;SDS011;66498;48.564;19.272;2023-07-16T02:28:28;11.07;;;8.50;;
77430;SDS011;66498;48.564;19.272;2023-07-16T02:30:53;9.18;;;8.27;;
77430;SDS011;66498;48.564;19.272;2023-07-16T02:33:18;10.15;;;7.70;;
77430;SDS011;66498;48.564;19.272;2023-07-16T02:35:47;9.50;;;7.85;;
77430;SDS011;66498;48.564;19.272;2023-07-16T02:38:14;9.93;;;8.10;;
77430;SDS011;66498;48.564;19.272;2023-07-16T02:40:44;8.90;;;8.00;;
77430;SDS011;66498;48.564;19.272;2023-07-16T02:43:10;8.70;;;7.65;;
77430;SDS011;66498;48.564;19.272;2023-07-16T02:45:36;8.68;;;7.78;;
77430;SDS011;66498;48.564;19.272;2023-07-16T02:48:02;14.98;;;8.57;;
77430;SDS011;66498;48.564;19.272;2023-07-16T02:50:28;10.40;;;7.97;;
77430;SDS011;66498;48.564;19.272;2023-07-16T02:52:53;11.65;;;7.18;;
77430;SDS011;66498;48.564;19.272;2023-07-16T02:55:19;9.65;;;8.10;;
77430;SDS011;66498;48.564;19.272;2023-07-16T02:57:44;10.43;;;8.60;;
77430;SDS011;66498;48.564;19.272;2023-07-16T03:00:10;10.65;;;8.10;;
77430;SDS011;66498;48.564;19.272;2023-07-16T03:02:35;10.00;;;7.53;;
77430;SDS011;66498;48.564;19.272;2023-07-16T03:05:01;10.52;;;7.45;;
77430;SDS011;66498;48.564;19.272;2023-07-16T03:07:26;9.38;;;7.30;;
77430;SDS011;66498;48.564;19.272;2023-07-16T03:09:52;7.80;;;7.00;;
77430;SDS011;66498;48.564;19.272;2023-07-16T03:12:17;8.63;;;6.70;;
77430;SDS011;66498;48.564;19.272;2023-07-16T03:14:43;9.65;;;7.57;;
77430;SDS011;66498;48.564;19.272;2023-07-16T03:17:08;10.65;;;7.82;;
77430;SDS011;66498;48.564;19.272;2023-07-16T03:19:34;11.27;;;7.43;;
77430;SDS011;66498;48.564;19.272;2023-07-16T03:21:59;9.85;;;7.50;;
77430;SDS011;66498;48.564;19.272;2023-07-16T03:24:25;10.70;;;7.45;;
77430;SDS011;66498;48.564;19.272;2023-07-16T03:26:50;9.13;;;7.63;;
77430;SDS011;66498;48.564;19.272;2023-07-16T03:29:16;12.07;;;7.80;;
77430;SDS011;66498;48.564;19.272;2023-07-16T03:31:41;9.82;;;7.80;;
77430;SDS011;66498;48.564;19.272;2023-07-16T03:34:06;11.85;;;7.45;;
77430;SDS011;66498;48.564;19.272;2023-07-16T03:36:32;9.27;;;7.53;;
77430;SDS011;66498;48.564;19.272;2023-07-16T03:38:57;9.90;;;8.40;;
77430;SDS011;66498;48.564;19.272;2023-07-16T03:41:23;10.23;;;8.13;;
77430;SDS011;66498;48.564;19.272;2023-07-16T03:43:48;12.48;;;8.48;;
77430;SDS011;66498;48.564;19.272;2023-07-16T03:46:14;9.00;;;8.05;;
77430;SDS011;66498;48.564;19.272;2023-07-16T03:48:39;9.25;;;7.97;;
77430;SDS011;66498;48.564;19.272;2023-07-16T03:51:05;9.27;;;8.10;;
77430;SDS011;66498;48.564;19.272;2023-07-16T03:53:30;9.05;;;7.50;;
77430;SDS011;66498;48.564;19.272;2023-07-16T03:55:56;13.43;;;7.50;;
77430;SDS011;66498;48.564;19.272;2023-07-16T03:58:21;9.88;;;7.75;;
77430;SDS011;66498;48.564;19.272;2023-07-16T04:00:48;14.77;;;8.23;;
77430;SDS011;66498;48.564;19.272;2023-07-16T04:03:13;9.98;;;7.93;;
77430;SDS011;66498;48.564;19.272;2023-07-16T04:05:39;9.98;;;8.30;;
77430;SDS011;66498;48.564;19.272;2023-07-16T04:08:04;11.07;;;7.72;;
77430;SDS011;66498;48.564;19.272;2023-07-16T04:10:30;8.45;;;7.57;;
77430;SDS011;66498;48.564;19.272;2023-07-16T04:12:55;8.88;;;7.03;;
77430;SDS011;66498;48.564;19.272;2023-07-16T04:15:20;8.95;;;7.57;;
77430;SDS011;66498;48.564;19.272;2023-07-16T04:17:46;8.40;;;7.50;;
77430;SDS011;66498;48.564;19.272;2023-07-16T04:20:11;8.88;;;7.80;;
77430;SDS011;66498;48.564;19.272;2023-07-16T04:22:37;8.98;;;7.80;;
77430;SDS011;66498;48.564;19.272;2023-07-16T04:25:03;11.93;;;8.02;;
77430;SDS011;66498;48.564;19.272;2023-07-16T04:27:29;11.25;;;8.18;;
77430;SDS011;66498;48.564;19.272;2023-07-16T04:29:54;9.98;;;7.95;;
77430;SDS011;66498;48.564;19.272;2023-07-16T04:32:20;10.23;;;8.10;;
77430;SDS011;66498;48.564;19.272;2023-07-16T04:34:45;9.57;;;8.27;;
77430;SDS011;66498;48.564;19.272;2023-07-16T04:37:11;9.40;;;8.15;;
77430;SDS011;66498;48.564;19.272;2023-07-16T04:39:36;8.45;;;7.55;;
77430;SDS011;66498;48.564;19.272;2023-07-16T04:42:02;11.57;;;8.13;;
77430;SDS011;66498;48.564;19.272;2023-07-16T04:44:27;16.13;;;8.80;;
77430;SDS011;66498;48.564;19.272;2023-07-16T04:46:52;10.25;;;8.77;;
77430;SDS011;66498;48.564;19.272;2023-07-16T04:49:18;10.93;;;8.73;;
77430;SDS011;66498;48.564;19.272;2023-07-16T04:51:43;12.63;;;9.52;;
77430;SDS011;66498;48.564;19.272;2023-07-16T04:54:09;13.73;;;9.27;;
77430;SDS011;66498;48.564;19.272;2023-07-16T04:56:34;12.57;;;9.27;;
77430;SDS011;66498;48.564;19.272;2023-07-16T04:59:00;10.75;;;9.35;;
77430;SDS011;66498;48.564;19.272;2023-07-16T05:01:25;11.75;;;9.45;;
77430;SDS011;66498;48.564;19.272;2023-07-16T05:03:52;10.75;;;9.00;;
77430;SDS011;66498;48.564;19.272;2023-07-16T05:06:17;13.38;;;9.27;;
77430;SDS011;66498;48.564;19.272;2023-07-16T05:08:43;10.77;;;8.70;;
77430;SDS011;66498;48.564;19.272;2023-07-16T05:11:08;10.32;;;8.27;;
77430;SDS011;66498;48.564;19.272;2023-07-16T05:13:34;10.02;;;8.93;;
77430;SDS011;66498;48.564;19.272;2023-07-16T05:15:59;10.98;;;8.43;;
77430;SDS011;66498;48.564;19.272;2023-07-16T05:18:25;11.43;;;8.77;;
77430;SDS011;66498;48.564;19.272;2023-07-16T05:20:50;10.50;;;8.60;;
77430;SDS011;66498;48.564;19.272;2023-07-16T05:23:16;12.07;;;8.77;;
77430;SDS011;66498;48.564;19.272;2023-07-16T05:25:48;9.98;;;8.32;;
77430;SDS011;66498;48.564;19.272;2023-07-16T05:28:15;10.03;;;8.40;;
77430;SDS011;66498;48.564;19.272;2023-07-16T05:30:41;11.60;;;8.48;;
77430;SDS011;66498;48.564;19.272;2023-07-16T05:33:06;11.88;;;7.90;;
77430;SDS011;66498;48.564;19.272;2023-07-16T05:35:32;9.07;;;7.43;;
77430;SDS011;66498;48.564;19.272;2023-07-16T05:37:57;9.60;;;7.55;;
77430;SDS011;66498;48.564;19.272;2023-07-16T05:40:23;7.85;;;7.05;;
77430;SDS011;66498;48.564;19.272;2023-07-16T05:42:48;10.50;;;7.57;;
77430;SDS011;66498;48.564;19.272;2023-07-16T05:45:14;8.60;;;6.72;;
77430;SDS011;66498;48.564;19.272;2023-07-16T05:47:39;9.52;;;6.72;;
77430;SDS011;66498;48.564;19.272;2023-07-16T05:50:05;8.77;;;6.93;;
77430;SDS011;66498;48.564;19.272;2023-07-16T05:52:31;8.52;;;7.25;;
77430;SDS011;66498;48.564;19.272;2023-07-16T05:54:56;8.77;;;6.68;;
77430;SDS011;66498;48.564;19.272;2023-07-16T05:57:22;7.28;;;6.43;;
77430;SDS011;66498;48.564;19.272;2023-07-16T05:59:47;8.98;;;6.72;;
77430;SDS011;66498;48.564;19.272;2023-07-16T06:02:13;8.88;;;6.68;;
77430;SDS011;66498;48.564;19.272;2023-07-16T06:04:38;6.90;;;6.20;;
77430;SDS011;66498;48.564;19.272;2023-07-16T06:07:04;7.07;;;6.32;;
77430;SDS011;66498;48.564;19.272;2023-07-16T06:09:30;6.90;;;6.10;;
77430;SDS011;66498;48.564;19.272;2023-07-16T06:11:56;9.90;;;6.00;;
77430;SDS011;66498;48.564;19.272;2023-07-16T06:14:21;8.65;;;5.85;;
77430;SDS011;66498;48.564;19.272;2023-07-16T06:16:47;8.73;;;5.63;;
77430;SDS011;66498;48.564;19.272;2023-07-16T06:19:12;6.22;;;5.28;;
77430;SDS011;66498;48.564;19.272;2023-07-16T06:21:37;6.57;;;5.65;;
77430;SDS011;66498;48.564;19.272;2023-07-16T06:24:03;6.65;;;5.60;;
77430;SDS011;66498;48.564;19.272;2023-07-16T06:26:29;8.02;;;5.70;;
77430;SDS011;66498;48.564;19.272;2023-07-16T06:28:54;6.25;;;5.10;;
77430;SDS011;66498;48.564;19.272;2023-07-16T06:31:19;6.88;;;5.60;;
77430;SDS011;66498;48.564;19.272;2023-07-16T06:33:45;6.38;;;5.07;;
77430;SDS011;66498;48.564;19.272;2023-07-16T06:36:12;6.18;;;5.38;;
77430;SDS011;66498;48.564;19.272;2023-07-16T06:38:37;6.60;;;5.70;;
77430;SDS011;66498;48.564;19.272;2023-07-16T06:41:03;7.25;;;5.72;;
77430;SDS011;66498;48.564;19.272;2023-07-16T06:43:29;8.52;;;5.93;;
77430;SDS011;66498;48.564;19.272;2023-07-16T06:45:54;7.78;;;5.50;;
77430;SDS011;66498;48.564;19.272;2023-07-16T06:48:20;6.95;;;5.32;;
77430;SDS011;66498;48.564;19.272;2023-07-16T06:50:46;5.90;;;5.30;;
77430;SDS011;66498;48.564;19.272;2023-07-16T06:53:11;6.38;;;5.10;;
77430;SDS011;66498;48.564;19.272;2023-07-16T06:55:37;5.75;;;5.03;;
77430;SDS011;66498;48.564;19.272;2023-07-16T06:58:02;8.18;;;4.75;;
77430;SDS011;66498;48.564;19.272;2023-07-16T07:00:28;5.47;;;4.80;;
77430;SDS011;66498;48.564;19.272;2023-07-16T07:02:54;6.57;;;4.47;;
77430;SDS011;66498;48.564;19.272;2023-07-16T07:05:20;7.40;;;4.82;;
77430;SDS011;66498;48.564;19.272;2023-07-16T07:07:45;5.50;;;4.32;;
77430;SDS011;66498;48.564;19.272;2023-07-16T07:10:12;4.90;;;4.13;;
77430;SDS011;66498;48.564;19.272;2023-07-16T07:12:38;7.07;;;4.15;;
77430;SDS011;66498;48.564;19.272;2023-07-16T07:15:07;5.03;;;3.92;;
77430;SDS011;66498;48.564;19.272;2023-07-16T07:17:33;9.43;;;3.58;;
77430;SDS011;66498;48.564;19.272;2023-07-16T07:20:00;7.63;;;3.97;;
77430;SDS011;66498;48.564;19.272;2023-07-16T07:22:26;5.68;;;3.60;;
77430;SDS011;66498;48.564;19.272;2023-07-16T07:24:52;4.80;;;3.40;;
77430;SDS011;66498;48.564;19.272;2023-07-16T07:27:20;6.32;;;3.53;;
77430;SDS011;66498;48.564;19.272;2023-07-16T07:29:46;5.65;;;3.60;;
77430;SDS011;66498;48.564;19.272;2023-07-16T07:32:11;5.07;;;3.60;;
77430;SDS011;66498;48.564;19.272;2023-07-16T07:34:38;6.07;;;3.20;;
77430;SDS011;66498;48.564;19.272;2023-07-16T07:37:04;3.85;;;3.20;;
77430;SDS011;66498;48.564;19.272;2023-07-16T07:39:30;4.38;;;3.33;;
77430;SDS011;66498;48.564;19.272;2023-07-16T07:41:55;4.78;;;3.22;;
77430;SDS011;66498;48.564;19.272;2023-07-16T07:44:21;5.50;;;3.42;;
77430;SDS011;66498;48.564;19.272;2023-07-16T07:46:46;8.90;;;3.85;;
77430;SDS011;66498;48.564;19.272;2023-07-16T07:49:12;5.57;;;3.45;;
77430;SDS011;66498;48.564;19.272;2023-07-16T07:51:37;4.78;;;3.42;;
77430;SDS011;66498;48.564;19.272;2023-07-16T07:54:06;4.43;;;3.70;;
77430;SDS011;66498;48.564;19.272;2023-07-16T07:56:32;4.13;;;3.50;;
77430;SDS011;66498;48.564;19.272;2023-07-16T07:58:57;4.15;;;3.53;;
77430;SDS011;66498;48.564;19.272;2023-07-16T08:01:23;5.25;;;3.28;;
77430;SDS011;66498;48.564;19.272;2023-07-16T08:03:48;3.90;;;3.47;;
77430;SDS011;66498;48.564;19.272;2023-07-16T08:06:14;4.57;;;3.47;;
77430;SDS011;66498;48.564;19.272;2023-07-16T08:08:39;3.95;;;3.30;;
77430;SDS011;66498;48.564;19.272;2023-07-16T08:11:05;5.10;;;3.70;;
77430;SDS011;66498;48.564;19.272;2023-07-16T08:13:30;5.00;;;3.63;;
77430;SDS011;66498;48.564;19.272;2023-07-16T08:15:57;3.92;;;3.53;;
77430;SDS011;66498;48.564;19.272;2023-07-16T08:18:22;4.38;;;3.40;;
77430;SDS011;66498;48.564;19.272;2023-07-16T08:20:48;4.30;;;3.50;;
77430;SDS011;66498;48.564;19.272;2023-07-16T08:23:13;3.72;;;3.13;;
77430;SDS011;66498;48.564;19.272;2023-07-16T08:25:39;3.88;;;3.33;;
77430;SDS011;66498;48.564;19.272;2023-07-16T08:28:04;3.92;;;3.30;;
77430;SDS011;66498;48.564;19.272;2023-07-16T08:30:32;4.22;;;3.65;;
77430;SDS011;66498;48.564;19.272;2023-07-16T08:32:58;4.85;;;3.45;;
77430;SDS011;66498;48.564;19.272;2023-07-16T08:35:23;6.82;;;3.53;;
77430;SDS011;66498;48.564;19.272;2023-07-16T08:37:49;5.82;;;4.28;;
77430;SDS011;66498;48.564;19.272;2023-07-16T08:40:15;6.05;;;4.32;;
77430;SDS011;66498;48.564;19.272;2023-07-16T08:42:41;5.15;;;4.45;;
77430;SDS011;66498;48.564;19.272;2023-07-16T08:45:11;5.55;;;4.28;;
77430;SDS011;66498;48.564;19.272;2023-07-16T08:47:38;4.70;;;4.30;;
77430;SDS011;66498;48.564;19.272;2023-07-16T08:50:04;4.68;;;4.18;;
77430;SDS011;66498;48.564;19.272;2023-07-16T08:52:30;6.68;;;4.53;;
77430;SDS011;66498;48.564;19.272;2023-07-16T08:54:56;5.00;;;4.45;;
77430;SDS011;66498;48.564;19.272;2023-07-16T08:57:22;6.20;;;4.40;;
77430;SDS011;66498;48.564;19.272;2023-07-16T08:59:50;4.80;;;4.28;;
77430;SDS011;66498;48.564;19.272;2023-07-16T09:02:19;5.55;;;4.55;;
77430;SDS011;66498;48.564;19.272;2023-07-16T09:04:49;5.85;;;4.50;;
77430;SDS011;66498;48.564;19.272;2023-07-16T09:07:19;4.72;;;4.18;;
77430;SDS011;66498;48.564;19.272;2023-07-16T09:09:55;6.43;;;5.20;;
77430;SDS011;66498;48.564;19.272;2023-07-16T09:12:24;5.30;;;4.80;;
77430;SDS011;66498;48.564;19.272;2023-07-16T09:14:51;6.20;;;5.28;;
77430;SDS011;66498;48.564;19.272;2023-07-16T09:17:23;6.57;;;5.70;;
77430;SDS011;66498;48.564;19.272;2023-07-16T09:19:50;7.05;;;6.10;;
77430;SDS011;66498;48.564;19.272;2023-07-16T09:22:18;5.57;;;5.07;;
77430;SDS011;66498;48.564;19.272;2023-07-16T09:24:47;7.32;;;5.93;;
77430;SDS011;66498;48.564;19.272;2023-07-16T09:27:13;8.48;;;5.90;;
77430;SDS011;66498;48.564;19.272;2023-07-16T09:29:40;6.18;;;5.57;;
77430;SDS011;66498;48.564;19.272;2023-07-16T09:32:06;6.45;;;5.43;;
77430;SDS011;66498;48.564;19.272;2023-07-16T09:34:32;9.43;;;6.28;;
77430;SDS011;66498;48.564;19.272;2023-07-16T09:36:58;7.20;;;6.50;;
77430;SDS011;66498;48.564;19.272;2023-07-16T09:39:26;7.68;;;6.97;;
77430;SDS011;66498;48.564;19.272;2023-07-16T09:41:52;7.72;;;6.93;;
77430;SDS011;66498;48.564;19.272;2023-07-16T09:44:19;8.43;;;7.57;;
77430;SDS011;66498;48.564;19.272;2023-07-16T09:46:45;8.13;;;6.97;;
77430;SDS011;66498;48.564;19.272;2023-07-16T09:49:14;10.80;;;7.15;;
77430;SDS011;66498;48.564;19.272;2023-07-16T09:51:41;8.82;;;7.50;;
77430;SDS011;66498;48.564;19.272;2023-07-16T09:54:08;8.50;;;7.28;;
77430;SDS011;66498;48.564;19.272;2023-07-16T09:56:48;8.55;;;7.10;;
77430;SDS011;66498;48.564;19.272;2023-07-16T09:59:21;8.13;;;6.85;;
77430;SDS011;66498;48.564;19.272;2023-07-16T10:01:50;7.90;;;6.85;;
77430;SDS011;66498;48.564;19.272;2023-07-16T10:04:19;8.02;;;7.22;;
77430;SDS011;66498;48.564;19.272;2023-07-16T10:06:55;8.05;;;6.93;;
77430;SDS011;66498;48.564;19.272;2023-07-16T10:12:12;7.78;;;6.60;;
77430;SDS011;66498;48.564;19.272;2023-07-16T10:14:47;8.43;;;7.55;;
77430;SDS011;66498;48.564;19.272;2023-07-16T10:17:17;8.30;;;7.50;;
77430;SDS011;66498;48.564;19.272;2023-07-16T10:20:15;8.93;;;7.60;;
77430;SDS011;66498;48.564;19.272;2023-07-16T10:22:42;8.27;;;6.80;;
77430;SDS011;66498;48.564;19.272;2023-07-16T10:27:44;10.00;;;7.22;;
77430;SDS011;66498;48.564;19.272;2023-07-16T10:30:11;8.55;;;7.50;;
77430;SDS011;66498;48.564;19.272;2023-07-16T10:32:37;8.00;;;7.20;;
77430;SDS011;66498;48.564;19.272;2023-07-16T10:35:03;8.43;;;7.53;;
77430;SDS011;66498;48.564;19.272;2023-07-16T10:37:30;9.18;;;7.53;;
77430;SDS011;66498;48.564;19.272;2023-07-16T10:39:59;8.82;;;7.88;;
77430;SDS011;66498;48.564;19.272;2023-07-16T10:42:30;8.20;;;7.40;;
77430;SDS011;66498;48.564;19.272;2023-07-16T10:45:00;8.10;;;7.30;;
77430;SDS011;66498;48.564;19.272;2023-07-16T10:49:58;8.20;;;7.40;;
77430;SDS011;66498;48.564;19.272;2023-07-16T10:52:24;8.20;;;7.28;;
77430;SDS011;66498;48.564;19.272;2023-07-16T10:54:51;10.05;;;7.63;;
77430;SDS011;66498;48.564;19.272;2023-07-16T10:57:20;8.90;;;8.00;;
77430;SDS011;66498;48.564;19.272;2023-07-16T10:59:47;8.15;;;7.30;;
77430;SDS011;66498;48.564;19.272;2023-07-16T11:02:16;10.35;;;6.97;;
77430;SDS011;66498;48.564;19.272;2023-07-16T11:04:43;8.18;;;6.80;;
77430;SDS011;66498;48.564;19.272;2023-07-16T11:07:11;8.45;;;6.72;;
77430;SDS011;66498;48.564;19.272;2023-07-16T11:09:44;7.75;;;6.82;;
77430;SDS011;66498;48.564;19.272;2023-07-16T11:12:13;7.80;;;6.55;;
77430;SDS011;66498;48.564;19.272;2023-07-16T11:14:44;7.30;;;6.60;;
77430;SDS011;66498;48.564;19.272;2023-07-16T11:17:12;7.65;;;6.57;;
77430;SDS011;66498;48.564;19.272;2023-07-16T11:19:39;8.48;;;7.13;;
77430;SDS011;66498;48.564;19.272;2023-07-16T11:22:06;8.57;;;6.90;;
77430;SDS011;66498;48.564;19.272;2023-07-16T11:24:40;7.95;;;7.13;;
77430;SDS011;66498;48.564;19.272;2023-07-16T11:29:57;8.32;;;7.18;;
77430;SDS011;66498;48.564;19.272;2023-07-16T11:34:57;7.63;;;6.82;;
77430;SDS011;66498;48.564;19.272;2023-07-16T11:37:24;7.78;;;6.40;;
77430;SDS011;66498;48.564;19.272;2023-07-16T11:39:54;7.95;;;6.50;;
77430;SDS011;66498;48.564;19.272;2023-07-16T11:42:29;7.25;;;6.55;;
77430;SDS011;66498;48.564;19.272;2023-07-16T11:44:56;8.10;;;6.75;;
77430;SDS011;66498;48.564;19.272;2023-07-16T11:47:23;7.18;;;6.47;;
77430;SDS011;66498;48.564;19.272;2023-07-16T11:49:49;10.02;;;7.15;;
77430;SDS011;66498;48.564;19.272;2023-07-16T11:52:18;7.63;;;6.50;;
77430;SDS011;66498;48.564;19.272;2023-07-16T11:54:48;7.57;;;5.97;;
77430;SDS011;66498;48.564;19.272;2023-07-16T11:57:15;8.52;;;6.25;;
77430;SDS011;66498;48.564;19.272;2023-07-16T11:59:41;8.23;;;6.68;;
77430;SDS011;66498;48.564;19.272;2023-07-16T12:02:07;7.45;;;6.75;;
77430;SDS011;66498;48.564;19.272;2023-07-16T12:04:33;7.00;;;6.30;;
77430;SDS011;66498;48.564;19.272;2023-07-16T12:06:59;7.40;;;6.40;;
77430;SDS011;66498;48.564;19.272;2023-07-16T12:09:25;8.27;;;5.72;;
77430;SDS011;66498;48.564;19.272;2023-07-16T12:11:51;6.65;;;5.95;;
77430;SDS011;66498;48.564;19.272;2023-07-16T12:14:17;7.18;;;6.28;;
77430;SDS011;66498;48.564;19.272;2023-07-16T12:16:42;6.93;;;6.22;;
77430;SDS011;66498;48.564;19.272;2023-07-16T12:19:08;7.95;;;6.20;;
77430;SDS011;66498;48.564;19.272;2023-07-16T12:21:35;6.97;;;6.28;;
77430;SDS011;66498;48.564;19.272;2023-07-16T12:24:00;7.30;;;6.60;;
77430;SDS011;66498;48.564;19.272;2023-07-16T12:26:26;8.15;;;6.72;;
77430;SDS011;66498;48.564;19.272;2023-07-16T12:28:53;10.85;;;6.22;;
77430;SDS011;66498;48.564;19.272;2023-07-16T12:31:18;7.40;;;6.55;;
77430;SDS011;66498;48.564;19.272;2023-07-16T12:33:45;9.32;;;6.82;;
77430;SDS011;66498;48.564;19.272;2023-07-16T12:36:12;9.60;;;6.93;;
77430;SDS011;66498;48.564;19.272;2023-07-16T12:38:37;8.13;;;6.88;;
77430;SDS011;66498;48.564;19.272;2023-07-16T12:41:03;9.40;;;7.07;;
77430;SDS011;66498;48.564;19.272;2023-07-16T12:43:29;7.95;;;6.95;;
77430;SDS011;66498;48.564;19.272;2023-07-16T12:45:57;10.18;;;6.70;;
77430;SDS011;66498;48.564;19.272;2023-07-16T12:48:23;8.38;;;6.80;;
77430;SDS011;66498;48.564;19.272;2023-07-16T12:50:48;12.40;;;7.32;;
77430;SDS011;66498;48.564;19.272;2023-07-16T12:53:14;8.32;;;7.20;;
77430;SDS011;66498;48.564;19.272;2023-07-16T12:55:40;8.55;;;7.05;;
77430;SDS011;66498;48.564;19.272;2023-07-16T12:58:06;8.77;;;6.85;;
77430;SDS011;66498;48.564;19.272;2023-07-16T13:00:31;7.40;;;6.25;;
77430;SDS011;66498;48.564;19.272;2023-07-16T13:02:57;7.82;;;6.68;;
77430;SDS011;66498;48.564;19.272;2023-07-16T13:05:23;7.63;;;6.32;;
77430;SDS011;66498;48.564;19.272;2023-07-16T13:07:48;7.35;;;6.10;;
77430;SDS011;66498;48.564;19.272;2023-07-16T13:10:14;6.85;;;6.15;;
77430;SDS011;66498;48.564;19.272;2023-07-16T13:12:40;9.70;;;6.40;;
77430;SDS011;66498;48.564;19.272;2023-07-16T13:15:06;8.27;;;6.10;;
77430;SDS011;66498;48.564;19.272;2023-07-16T13:17:32;7.05;;;6.07;;
77430;SDS011;66498;48.564;19.272;2023-07-16T13:19:58;9.23;;;6.40;;
77430;SDS011;66498;48.564;19.272;2023-07-16T13:22:24;8.27;;;6.90;;
77430;SDS011;66498;48.564;19.272;2023-07-16T13:24:50;6.78;;;6.07;;
77430;SDS011;66498;48.564;19.272;2023-07-16T13:27:22;8.00;;;6.35;;
77430;SDS011;66498;48.564;19.272;2023-07-16T13:29:48;8.25;;;6.22;;
77430;SDS011;66498;48.564;19.272;2023-07-16T13:32:14;7.70;;;6.10;;
77430;SDS011;66498;48.564;19.272;2023-07-16T13:34:40;7.00;;;5.72;;
77430;SDS011;66498;48.564;19.272;2023-07-16T13:37:06;6.55;;;5.85;;
77430;SDS011;66498;48.564;19.272;2023-07-16T13:39:34;6.20;;;5.60;;
77430;SDS011;66498;48.564;19.272;2023-07-16T13:42:00;7.55;;;5.93;;
77430;SDS011;66498;48.564;19.272;2023-07-16T13:44:25;6.72;;;5.75;;
77430;SDS011;66498;48.564;19.272;2023-07-16T13:46:51;8.32;;;6.10;;
77430;SDS011;66498;48.564;19.272;2023-07-16T13:49:17;7.68;;;6.18;;
77430;SDS011;66498;48.564;19.272;2023-07-16T13:51:42;7.18;;;6.47;;
77430;SDS011;66498;48.564;19.272;2023-07-16T13:54:10;6.72;;;6.00;;
77430;SDS011;66498;48.564;19.272;2023-07-16T13:56:37;7.28;;;5.80;;
77430;SDS011;66498;48.564;19.272;2023-07-16T13:59:02;7.88;;;6.40;;
77430;SDS011;66498;48.564;19.272;2023-07-16T14:01:28;7.13;;;6.18;;
77430;SDS011;66498;48.564;19.272;2023-07-16T14:03:54;7.35;;;6.53;;
77430;SDS011;66498;48.564;19.272;2023-07-16T14:06:20;6.97;;;6.28;;
77430;SDS011;66498;48.564;19.272;2023-07-16T14:08:46;9.80;;;6.90;;
77430;SDS011;66498;48.564;19.272;2023-07-16T14:11:11;9.60;;;6.80;;
77430;SDS011;66498;48.564;19.272;2023-07-16T14:13:37;7.40;;;6.40;;
77430;SDS011;66498;48.564;19.272;2023-07-16T14:16:03;8.07;;;6.65;;
77430;SDS011;66498;48.564;19.272;2023-07-16T14:18:29;8.27;;;6.82;;
77430;SDS011;66498;48.564;19.272;2023-07-16T14:20:54;7.50;;;6.75;;
77430;SDS011;66498;48.564;19.272;2023-07-16T14:23:20;8.07;;;7.10;;
77430;SDS011;66498;48.564;19.272;2023-07-16T14:25:45;8.73;;;7.00;;
77430;SDS011;66498;48.564;19.272;2023-07-16T14:28:11;8.75;;;7.18;;
77430;SDS011;66498;48.564;19.272;2023-07-16T14:30:36;9.02;;;7.53;;
77430;SDS011;66498;48.564;19.272;2023-07-16T14:33:02;8.77;;;7.60;;
77430;SDS011;66498;48.564;19.272;2023-07-16T14:35:29;8.20;;;7.30;;
77430;SDS011;66498;48.564;19.272;2023-07-16T14:37:55;8.05;;;7.25;;
77430;SDS011;66498;48.564;19.272;2023-07-16T14:40:20;7.75;;;6.88;;
77430;SDS011;66498;48.564;19.272;2023-07-16T14:42:46;9.80;;;7.07;;
77430;SDS011;66498;48.564;19.272;2023-07-16T14:45:12;8.52;;;7.20;;